createdAt,value
2023-05-23T00:01:40.527Z,2.13
2023-05-23T00:04:07.437Z,2.17
2023-05-23T00:06:34.527Z,2.67
2023-05-23T00:09:01.895Z,2.50
2023-05-23T00:11:29.318Z,2.47
2023-05-23T00:13:57.583Z,2.58
2023-05-23T00:16:24.377Z,2.30
2023-05-23T00:18:51.894Z,2.35
2023-05-23T00:21:18.691Z,2.08
2023-05-23T00:23:45.506Z,2.30
2023-05-23T00:26:12.233Z,2.40
2023-05-23T00:28:39.027Z,2.50
2023-05-23T00:31:06.103Z,2.22
2023-05-23T00:33:34.325Z,2.22
2023-05-23T00:36:01.123Z,2.28
2023-05-23T00:38:28.574Z,2.05
2023-05-23T00:40:55.374Z,2.35
2023-05-23T00:43:22.776Z,2.20
2023-05-23T00:45:49.990Z,2.05
2023-05-23T00:48:17.085Z,2.55
2023-05-23T00:50:44.203Z,2.10
2023-05-23T00:53:11.021Z,2.33
2023-05-23T00:55:39.635Z,2.13
2023-05-23T00:58:06.672Z,2.20
2023-05-23T01:00:34.767Z,2.00
2023-05-23T01:03:01.863Z,2.20
2023-05-23T01:05:28.719Z,2.50
2023-05-23T01:07:55.685Z,2.17
2023-05-23T01:10:31.064Z,2.53
2023-05-23T01:13:26.963Z,2.00
2023-05-23T01:16:24.918Z,2.22
2023-05-23T01:19:02.286Z,2.33
2023-05-23T01:21:29.517Z,2.35
2023-05-23T01:24:08.193Z,2.15
2023-05-23T01:27:11.837Z,1.95
2023-05-23T01:29:43.655Z,1.95
2023-05-23T01:32:12.674Z,1.80
2023-05-23T01:34:41.345Z,2.05
2023-05-23T01:37:10.383Z,2.25
2023-05-23T01:39:38.130Z,2.40
2023-05-23T01:42:05.413Z,2.03
2023-05-23T01:44:34.488Z,2.10
2023-05-23T01:47:03.946Z,2.08
2023-05-23T01:49:31.833Z,2.05
2023-05-23T01:52:00.709Z,1.85
2023-05-23T01:54:29.469Z,2.20
2023-05-23T01:57:01.080Z,2.30
2023-05-23T01:59:28.063Z,1.85
2023-05-23T02:01:56.028Z,2.20
2023-05-23T02:04:23.185Z,2.30
2023-05-23T02:06:49.964Z,2.33
2023-05-23T02:09:16.880Z,2.28
2023-05-23T02:11:43.660Z,2.20
2023-05-23T02:14:11.512Z,1.95
2023-05-23T02:16:38.341Z,2.35
2023-05-23T02:19:05.217Z,2.17
2023-05-23T02:21:34.150Z,2.30
2023-05-23T02:24:01.914Z,1.92
2023-05-23T02:26:28.964Z,1.95
2023-05-23T02:28:55.798Z,2.10
2023-05-23T02:31:22.656Z,2.15
2023-05-23T02:33:49.383Z,2.17
2023-05-23T02:36:16.280Z,2.00
2023-05-23T02:38:43.015Z,2.40
2023-05-23T02:41:09.831Z,2.30
2023-05-23T02:43:36.577Z,1.90
2023-05-23T02:46:03.406Z,1.88
2023-05-23T02:48:30.164Z,2.08
2023-05-23T02:50:57.094Z,2.28
2023-05-23T02:53:23.906Z,2.00
2023-05-23T02:55:51.441Z,2.08
2023-05-23T02:58:18.199Z,2.22
2023-05-23T03:00:45.106Z,1.90
2023-05-23T03:03:12.848Z,2.10
2023-05-23T03:05:39.906Z,2.17
2023-05-23T03:08:06.868Z,1.90
2023-05-23T03:10:33.859Z,2.22
2023-05-23T03:13:00.816Z,1.85
2023-05-23T03:15:27.606Z,1.90
2023-05-23T03:17:54.448Z,2.17
2023-05-23T03:20:21.384Z,2.50
2023-05-23T03:22:48.290Z,2.17
2023-05-23T03:25:18.353Z,2.08
2023-05-23T03:27:45.168Z,2.30
2023-05-23T03:30:12.812Z,2.25
2023-05-23T03:32:39.716Z,2.13
2023-05-23T03:35:07.041Z,2.28
2023-05-23T03:37:33.844Z,2.10
2023-05-23T03:40:01.085Z,2.22
2023-05-23T03:42:28.792Z,2.28
2023-05-23T03:44:55.876Z,2.50
2023-05-23T03:47:24.358Z,2.08
2023-05-23T03:49:51.337Z,1.98
2023-05-23T03:52:18.348Z,2.25
2023-05-23T03:54:45.176Z,2.08
2023-05-23T03:57:11.960Z,2.13
2023-05-23T03:59:38.772Z,1.98
2023-05-23T04:02:06.092Z,2.28
2023-05-23T04:04:32.990Z,2.10
2023-05-23T04:07:00.211Z,2.00
2023-05-23T04:09:27.006Z,2.00
2023-05-23T04:11:53.878Z,2.33
2023-05-23T04:14:22.596Z,2.47
2023-05-23T04:16:49.484Z,2.13
2023-05-23T04:19:17.450Z,2.25
2023-05-23T04:21:44.305Z,2.10
2023-05-23T04:24:11.563Z,2.20
2023-05-23T04:26:39.751Z,2.00
2023-05-23T04:29:06.706Z,2.50
2023-05-23T04:31:36.826Z,2.05
2023-05-23T04:34:04.045Z,2.55
2023-05-23T04:36:31.516Z,2.20
2023-05-23T04:38:58.443Z,2.05
2023-05-23T04:41:25.295Z,2.60
2023-05-23T04:43:54.693Z,1.80
2023-05-23T04:46:27.631Z,2.25
2023-05-23T04:48:55.285Z,2.47
2023-05-23T04:51:22.375Z,2.50
2023-05-23T04:53:50.111Z,2.45
2023-05-23T04:56:21.932Z,2.22
2023-05-23T04:58:49.336Z,2.25
2023-05-23T05:01:16.169Z,2.28
2023-05-23T05:03:43.116Z,2.40
2023-05-23T05:06:13.164Z,2.47
2023-05-23T05:08:41.066Z,2.90
2023-05-23T05:11:09.309Z,2.13
2023-05-23T05:13:36.490Z,2.35
2023-05-23T05:16:04.125Z,2.70
2023-05-23T05:18:31.172Z,2.10
2023-05-23T05:20:58.639Z,2.20
2023-05-23T05:23:26.594Z,2.25
2023-05-23T05:25:53.344Z,2.50
2023-05-23T05:28:21.933Z,2.75
2023-05-23T05:30:54.233Z,2.20
2023-05-23T05:33:25.177Z,2.47
2023-05-23T05:35:52.402Z,2.45
2023-05-23T05:38:19.540Z,2.25
2023-05-23T05:40:46.414Z,2.30
2023-05-23T05:43:13.276Z,2.38
2023-05-23T05:45:40.411Z,2.40
2023-05-23T05:48:08.144Z,2.78
2023-05-23T05:50:35.071Z,2.30
2023-05-23T05:53:01.875Z,2.42
2023-05-23T05:55:28.775Z,2.20
2023-05-23T05:57:55.804Z,2.35
2023-05-23T06:00:25.957Z,2.13
2023-05-23T06:02:55.162Z,2.33
2023-05-23T06:05:22.201Z,2.40
2023-05-23T06:07:50.238Z,2.33
2023-05-23T06:10:17.130Z,2.35
2023-05-23T06:12:45.650Z,2.20
2023-05-23T06:15:14.535Z,2.28
2023-05-23T06:17:41.752Z,2.10
2023-05-23T06:20:08.931Z,2.03
2023-05-23T06:22:35.920Z,2.40
2023-05-23T06:25:02.870Z,2.38
2023-05-23T06:27:29.708Z,2.30
2023-05-23T06:29:56.472Z,2.10
2023-05-23T06:32:23.288Z,2.00
2023-05-23T06:34:50.083Z,2.25
2023-05-23T06:37:17.992Z,2.42
2023-05-23T06:39:44.794Z,2.45
2023-05-23T06:42:11.587Z,2.10
2023-05-23T06:44:38.347Z,2.30
2023-05-23T06:47:05.340Z,2.35
2023-05-23T06:49:32.168Z,2.30
2023-05-23T06:51:58.970Z,2.20
2023-05-23T06:54:25.765Z,2.53
2023-05-23T06:56:52.494Z,2.40
2023-05-23T06:59:19.800Z,2.50
2023-05-23T07:01:47.017Z,2.47
2023-05-23T07:04:14.158Z,2.28
2023-05-23T07:06:40.926Z,2.25
2023-05-23T07:09:07.737Z,2.35
2023-05-23T07:11:35.601Z,2.17
2023-05-23T07:14:02.418Z,2.40
2023-05-23T07:16:29.320Z,2.53
2023-05-23T07:18:56.177Z,1.95
2023-05-23T07:21:23.013Z,2.28
2023-05-23T07:23:49.748Z,2.50
2023-05-23T07:26:16.556Z,2.10
2023-05-23T07:28:43.441Z,1.95
2023-05-23T07:31:10.279Z,2.08
2023-05-23T07:33:37.100Z,2.15
2023-05-23T07:36:04.129Z,2.13
2023-05-23T07:38:31.019Z,2.08
2023-05-23T07:41:09.986Z,1.90
2023-05-23T07:43:38.761Z,2.58
2023-05-23T07:46:05.670Z,2.70
2023-05-23T07:48:33.118Z,1.98
2023-05-23T07:50:59.905Z,2.13
2023-05-23T07:53:26.815Z,2.30
2023-05-23T07:55:53.678Z,2.03
2023-05-23T07:58:20.495Z,1.95
2023-05-23T08:00:47.276Z,2.38
2023-05-23T08:03:14.017Z,2.10
2023-05-23T08:05:40.957Z,2.75
2023-05-23T08:08:07.904Z,2.10
2023-05-23T08:10:34.761Z,2.35
2023-05-23T08:13:06.782Z,2.17
2023-05-23T08:15:33.960Z,2.10
2023-05-23T08:18:00.876Z,2.38
2023-05-23T08:20:31.304Z,2.63
2023-05-23T08:23:02.509Z,2.50
2023-05-23T08:25:32.700Z,2.67
2023-05-23T08:28:00.615Z,1.98
2023-05-23T08:30:28.655Z,2.00
2023-05-23T08:32:56.411Z,1.95
2023-05-23T08:35:23.677Z,2.28
2023-05-23T08:37:50.958Z,2.20
2023-05-23T08:40:21.403Z,2.28
2023-05-23T08:42:49.854Z,2.00
2023-05-23T08:45:17.612Z,2.10
2023-05-23T08:47:45.885Z,1.90
2023-05-23T08:50:14.887Z,2.08
2023-05-23T08:52:47.521Z,2.25
2023-05-23T08:55:16.360Z,1.98
2023-05-23T08:57:43.772Z,2.20
2023-05-23T09:00:15.002Z,2.35
2023-05-23T09:05:13.145Z,1.70
2023-05-23T09:07:40.610Z,2.40
2023-05-23T09:10:10.342Z,2.30
2023-05-23T09:12:37.940Z,2.05
2023-05-23T09:15:06.642Z,2.15
2023-05-23T09:17:33.825Z,2.00
2023-05-23T09:20:01.045Z,2.08
2023-05-23T09:22:28.757Z,2.25
2023-05-23T09:24:56.691Z,2.17
2023-05-23T09:27:24.098Z,2.08
2023-05-23T09:29:51.026Z,1.98
2023-05-23T09:32:18.951Z,2.03
2023-05-23T09:35:00.360Z,1.90
2023-05-23T09:37:30.107Z,1.83
2023-05-23T09:39:58.737Z,2.05
2023-05-23T09:42:31.498Z,2.05
2023-05-23T09:44:59.834Z,2.25
2023-05-23T09:47:28.156Z,1.98
2023-05-23T09:49:55.192Z,1.92
2023-05-23T09:52:22.080Z,2.25
2023-05-23T09:54:49.131Z,1.83
2023-05-23T09:57:17.411Z,1.90
2023-05-23T09:59:53.329Z,1.98
2023-05-23T10:02:46.361Z,1.90
2023-05-23T10:05:22.983Z,2.00
2023-05-23T10:07:51.013Z,2.33
2023-05-23T10:10:19.213Z,2.20
2023-05-23T10:12:54.470Z,2.10
2023-05-23T10:15:23.988Z,2.28
2023-05-23T10:18:24.927Z,2.20
2023-05-23T10:20:54.181Z,2.38
2023-05-23T10:23:21.600Z,1.83
2023-05-23T10:25:48.973Z,2.22
2023-05-23T10:28:16.105Z,2.03
2023-05-23T10:30:44.344Z,2.40
2023-05-23T10:33:12.819Z,2.00
2023-05-23T10:35:57.600Z,1.95
2023-05-23T10:38:34.441Z,2.10
2023-05-23T10:41:23.207Z,2.25
2023-05-23T10:44:02.313Z,2.10
2023-05-23T10:46:55.610Z,2.08
2023-05-23T10:49:37.097Z,1.92
2023-05-23T10:54:36.159Z,1.85
2023-05-23T10:57:04.771Z,2.30
2023-05-23T10:59:32.325Z,2.20
2023-05-23T11:02:01.589Z,1.98
2023-05-23T11:04:29.384Z,2.38
2023-05-23T11:06:57.135Z,2.03
2023-05-23T11:09:24.385Z,2.47
2023-05-23T11:11:53.936Z,2.42
2023-05-23T11:14:32.635Z,2.42
2023-05-23T11:17:30.803Z,2.50
2023-05-23T11:20:09.662Z,2.40
2023-05-23T11:22:37.368Z,2.45
2023-05-23T11:25:09.437Z,2.50
2023-05-23T11:27:40.394Z,2.67
2023-05-23T11:30:08.986Z,2.47
2023-05-23T11:32:37.318Z,2.33
2023-05-23T11:35:14.167Z,2.15
2023-05-23T11:37:41.759Z,2.15
2023-05-23T11:40:35.907Z,2.28
2023-05-23T11:43:06.260Z,2.72
2023-05-23T11:45:34.881Z,2.58
2023-05-23T11:48:16.705Z,2.53
2023-05-23T11:50:54.030Z,2.75
2023-05-23T11:53:25.819Z,2.53
2023-05-23T11:55:55.336Z,3.00
2023-05-23T11:58:26.360Z,2.90
2023-05-23T12:00:58.272Z,3.17
2023-05-23T12:03:25.188Z,2.90
2023-05-23T12:05:52.136Z,3.15
2023-05-23T12:08:18.907Z,2.85
2023-05-23T12:10:53.280Z,2.70
2023-05-23T12:13:20.670Z,3.10
2023-05-23T12:15:47.895Z,2.60
2023-05-23T12:18:16.678Z,2.90
2023-05-23T12:20:43.565Z,3.13
2023-05-23T12:23:19.518Z,3.15
2023-05-23T12:25:50.819Z,2.80
2023-05-23T12:28:17.606Z,3.40
2023-05-23T12:30:44.787Z,3.53
2023-05-23T12:33:12.136Z,2.97
2023-05-23T12:35:43.237Z,2.85
2023-05-23T12:38:10.311Z,3.28
2023-05-23T12:40:37.160Z,2.85
2023-05-23T12:43:03.969Z,2.88
2023-05-23T12:45:32.848Z,3.45
2023-05-23T12:47:59.960Z,3.60
2023-05-23T12:50:27.481Z,3.55
2023-05-23T12:52:54.217Z,2.90
2023-05-23T12:55:21.049Z,3.25
2023-05-23T12:57:48.273Z,3.47
2023-05-23T13:00:15.614Z,3.30
2023-05-23T13:02:42.733Z,3.08
2023-05-23T13:05:09.764Z,2.78
2023-05-23T13:07:38.015Z,3.38
2023-05-23T13:10:05.630Z,3.50
2023-05-23T13:12:34.201Z,3.28
2023-05-23T13:15:01.142Z,3.75
2023-05-23T13:17:28.149Z,3.53
2023-05-23T13:19:55.282Z,3.47
2023-05-23T13:22:22.219Z,4.03
2023-05-23T13:24:49.014Z,3.92
2023-05-23T13:27:16.029Z,3.03
2023-05-23T13:29:43.167Z,3.22
2023-05-23T13:32:09.943Z,2.85
2023-05-23T13:34:37.653Z,2.45
2023-05-23T13:37:05.661Z,3.20
2023-05-23T13:39:32.616Z,3.10
2023-05-23T13:41:59.459Z,3.40
2023-05-23T13:44:26.211Z,3.35
2023-05-23T13:46:52.989Z,3.35
2023-05-23T13:49:19.816Z,3.35
2023-05-23T13:51:46.622Z,2.90
2023-05-23T13:54:13.998Z,3.08
2023-05-23T13:56:41.025Z,2.70
2023-05-23T13:59:07.872Z,3.35
2023-05-23T14:01:34.637Z,3.08
2023-05-23T14:04:01.476Z,3.50
2023-05-23T14:06:28.249Z,2.80
2023-05-23T14:08:55.961Z,3.17
2023-05-23T14:11:22.703Z,3.40
2023-05-23T14:13:49.438Z,3.05
2023-05-23T14:16:16.424Z,2.97
2023-05-23T14:18:43.770Z,3.42
2023-05-23T14:21:10.656Z,3.40
2023-05-23T14:23:37.458Z,3.28
2023-05-23T14:26:04.507Z,3.22
2023-05-23T14:28:31.467Z,3.13
2023-05-23T14:30:59.180Z,3.10
2023-05-23T14:33:26.377Z,3.22
2023-05-23T14:35:53.395Z,3.08
2023-05-23T14:38:20.362Z,3.90
2023-05-23T14:40:49.790Z,3.03
2023-05-23T14:43:16.587Z,3.33
2023-05-23T14:45:43.793Z,3.00
2023-05-23T14:48:11.689Z,3.35
2023-05-23T14:50:38.708Z,3.10
2023-05-23T14:53:05.701Z,3.00
2023-05-23T14:55:32.586Z,3.67
2023-05-23T14:57:59.967Z,3.13
2023-05-23T15:00:26.910Z,2.90
2023-05-23T15:02:53.698Z,3.50
2023-05-23T15:05:20.738Z,3.30
2023-05-23T15:07:47.813Z,3.70
2023-05-23T15:10:14.786Z,3.15
2023-05-23T15:12:41.584Z,3.45
2023-05-23T15:15:08.770Z,3.50
2023-05-23T15:17:35.952Z,3.33
2023-05-23T15:20:05.177Z,3.60
2023-05-23T15:22:39.526Z,3.80
2023-05-23T15:25:08.395Z,3.92
2023-05-23T15:27:35.439Z,3.55
2023-05-23T15:30:03.759Z,4.07
2023-05-23T15:32:30.703Z,3.40
2023-05-23T15:34:57.690Z,3.17
2023-05-23T15:37:24.652Z,2.97
2023-05-23T15:39:51.506Z,3.78
2023-05-23T15:42:18.362Z,3.60
2023-05-23T15:44:45.149Z,3.67
2023-05-23T15:47:12.035Z,3.42
2023-05-23T15:49:38.900Z,3.08
2023-05-23T15:52:05.734Z,3.90
2023-05-23T15:54:32.553Z,3.55
2023-05-23T15:56:59.369Z,3.67
2023-05-23T15:59:26.164Z,3.60
2023-05-23T16:01:53.135Z,3.50
2023-05-23T16:04:20.367Z,3.78
2023-05-23T16:06:47.228Z,3.85
2023-05-23T16:09:13.941Z,3.42
2023-05-23T16:11:40.816Z,3.92
2023-05-23T16:14:07.716Z,3.92
2023-05-23T16:16:35.007Z,3.80
2023-05-23T16:19:02.816Z,3.72
2023-05-23T16:21:29.777Z,3.88
2023-05-23T16:23:56.907Z,3.42
2023-05-23T16:26:23.675Z,3.65
2023-05-23T16:28:50.793Z,3.78
2023-05-23T16:31:17.713Z,3.72
2023-05-23T16:33:45.168Z,4.25
2023-05-23T16:36:12.064Z,3.58
2023-05-23T16:38:38.968Z,3.92
2023-05-23T16:41:05.915Z,4.10
2023-05-23T16:43:33.758Z,4.03
2023-05-23T16:46:00.696Z,3.60
2023-05-23T16:48:27.672Z,3.95
2023-05-23T16:50:55.488Z,4.15
2023-05-23T16:53:22.528Z,3.88
2023-05-23T16:55:49.445Z,4.15
2023-05-23T16:58:19.318Z,4.20
2023-05-23T17:03:14.861Z,4.15
2023-05-23T17:05:42.053Z,4.55
2023-05-23T17:08:09.202Z,4.50
2023-05-23T17:10:36.957Z,3.60
2023-05-23T17:13:03.844Z,4.20
2023-05-23T17:15:30.717Z,3.70
2023-05-23T17:17:57.536Z,3.55
2023-05-23T17:20:26.742Z,3.80
2023-05-23T17:22:53.645Z,4.00
2023-05-23T17:25:20.624Z,3.72
2023-05-23T17:27:47.515Z,4.50
2023-05-23T17:30:18.219Z,4.10
2023-05-23T17:32:49.575Z,4.68
2023-05-23T17:35:16.370Z,4.55
2023-05-23T17:37:44.957Z,4.18
2023-05-23T17:40:12.454Z,4.47
2023-05-23T17:42:40.814Z,4.05
2023-05-23T17:45:09.510Z,4.05
2023-05-23T17:47:36.362Z,4.55
2023-05-23T17:50:04.607Z,4.28
2023-05-23T17:52:31.325Z,4.05
2023-05-23T17:54:58.324Z,4.68
2023-05-23T17:57:25.259Z,4.32
2023-05-23T17:59:51.999Z,4.50
2023-05-23T18:02:19.032Z,4.55
2023-05-23T18:04:46.677Z,4.07
2023-05-23T18:07:14.305Z,4.35
2023-05-23T18:09:41.223Z,5.07
2023-05-23T18:12:08.042Z,4.03
2023-05-23T18:14:34.794Z,4.13
2023-05-23T18:17:01.895Z,4.15
2023-05-23T18:19:29.505Z,3.72
2023-05-23T18:21:56.714Z,3.80
2023-05-23T18:24:23.517Z,4.43
2023-05-23T18:26:50.355Z,4.13
2023-05-23T18:29:17.239Z,4.22
2023-05-23T18:31:45.070Z,4.43
2023-05-23T18:34:12.030Z,5.00
2023-05-23T18:36:38.799Z,4.25
2023-05-23T18:39:05.617Z,4.88
2023-05-23T18:41:32.389Z,4.05
2023-05-23T18:43:59.091Z,4.20
2023-05-23T18:46:26.761Z,4.68
2023-05-23T18:48:53.512Z,4.65
2023-05-23T18:51:20.252Z,4.22
2023-05-23T18:53:47.076Z,4.63
2023-05-23T18:56:13.850Z,4.85
2023-05-23T18:58:40.969Z,4.47
2023-05-23T19:01:08.206Z,4.10
2023-05-23T19:03:37.218Z,4.80
2023-05-23T19:06:05.383Z,4.35
2023-05-23T19:08:33.483Z,4.40
2023-05-23T19:11:01.025Z,4.20
2023-05-23T19:13:28.139Z,4.30
2023-05-23T19:15:55.138Z,4.72
2023-05-23T19:18:22.806Z,4.50
2023-05-23T19:20:52.034Z,5.03
2023-05-23T19:23:19.220Z,5.20
2023-05-23T19:25:46.631Z,4.80
2023-05-23T19:28:15.298Z,4.60
2023-05-23T19:30:42.821Z,5.07
2023-05-23T19:33:10.279Z,4.80
2023-05-23T19:35:37.541Z,4.72
2023-05-23T19:38:04.525Z,4.80
2023-05-23T19:40:31.366Z,4.90
2023-05-23T19:42:58.345Z,4.68
2023-05-23T19:45:25.622Z,4.57
2023-05-23T19:47:52.583Z,5.05
2023-05-23T19:50:19.664Z,5.35
2023-05-23T19:52:46.586Z,5.10
2023-05-23T19:55:14.400Z,6.18
2023-05-23T19:57:41.307Z,5.72
2023-05-23T20:00:10.472Z,5.55
2023-05-23T20:02:37.420Z,5.30
2023-05-23T20:05:04.697Z,5.53
2023-05-23T20:07:31.659Z,5.97
2023-05-23T20:09:58.553Z,6.13
2023-05-23T20:12:25.430Z,5.72
2023-05-23T20:14:52.387Z,5.82
2023-05-23T20:17:19.274Z,6.13
2023-05-23T20:19:46.972Z,5.50
2023-05-23T20:22:13.963Z,6.20
2023-05-23T20:24:40.805Z,6.97
2023-05-23T20:27:08.331Z,5.78
2023-05-23T20:29:35.263Z,6.28
2023-05-23T20:32:02.305Z,6.05
2023-05-23T20:34:29.213Z,6.53
2023-05-23T20:36:56.178Z,6.95
2023-05-23T20:39:24.051Z,7.43
2023-05-23T20:41:50.839Z,7.30
2023-05-23T20:44:18.298Z,7.40
2023-05-23T20:46:45.434Z,6.40
2023-05-23T20:49:12.660Z,6.10
2023-05-23T20:51:39.410Z,7.00
2023-05-23T20:54:07.111Z,6.97
2023-05-23T20:56:34.078Z,6.63
2023-05-23T20:59:00.978Z,6.65
2023-05-23T21:01:28.283Z,6.95
2023-05-23T21:03:55.787Z,7.88
2023-05-23T21:06:22.600Z,7.22
2023-05-23T21:08:49.424Z,7.60
2023-05-23T21:11:16.236Z,7.57
2023-05-23T21:13:43.076Z,7.25
2023-05-23T21:16:12.548Z,6.00
2023-05-23T21:18:39.358Z,7.55
2023-05-23T21:21:06.450Z,6.60
2023-05-23T21:23:33.372Z,8.55
2023-05-23T21:26:00.119Z,7.55
2023-05-23T21:28:27.376Z,7.43
2023-05-23T21:30:54.710Z,9.68
2023-05-23T21:33:21.702Z,8.35
2023-05-23T21:35:48.793Z,9.40
2023-05-23T21:38:16.001Z,8.02
2023-05-23T21:40:45.466Z,6.90
2023-05-23T21:43:12.465Z,7.38
2023-05-23T21:45:40.026Z,6.85
2023-05-23T21:48:07.077Z,6.97
2023-05-23T21:50:34.067Z,7.60
2023-05-23T21:53:01.315Z,6.78
2023-05-23T21:55:28.435Z,7.07
2023-05-23T21:57:55.433Z,7.57
2023-05-23T22:00:22.935Z,8.10
2023-05-23T22:02:50.307Z,7.85
2023-05-23T22:05:17.316Z,8.25
2023-05-23T22:07:44.378Z,8.70
2023-05-23T22:10:11.620Z,8.80
2023-05-23T22:12:38.941Z,7.78
2023-05-23T22:15:07.465Z,8.25
2023-05-23T22:17:34.776Z,7.95
2023-05-23T22:20:05.614Z,7.97
2023-05-23T22:22:32.487Z,8.70
2023-05-23T22:24:59.532Z,8.32
2023-05-23T22:27:26.492Z,8.35
2023-05-23T22:29:53.437Z,9.30
2023-05-23T22:32:20.777Z,9.30
2023-05-23T22:34:47.732Z,9.10
2023-05-23T22:37:16.136Z,9.75
2023-05-23T22:39:43.029Z,10.27
2023-05-23T22:42:10.000Z,9.45
2023-05-23T22:44:37.041Z,9.55
2023-05-23T22:47:04.235Z,9.32
2023-05-23T22:49:31.285Z,8.57
2023-05-23T22:51:59.378Z,8.35
2023-05-23T22:54:26.324Z,9.30
2023-05-23T22:56:53.438Z,8.13
2023-05-23T22:59:20.606Z,7.63
2023-05-23T23:01:47.679Z,8.88
2023-05-23T23:04:17.195Z,8.35
2023-05-23T23:06:44.556Z,8.60
2023-05-23T23:09:11.797Z,8.35
2023-05-23T23:11:38.780Z,7.85
2023-05-23T23:14:05.749Z,8.55
2023-05-23T23:16:32.943Z,8.02
2023-05-23T23:19:00.012Z,7.88
2023-05-23T23:21:26.901Z,7.68
2023-05-23T23:23:53.726Z,8.05
2023-05-23T23:26:22.097Z,8.43
2023-05-23T23:28:48.819Z,8.73
2023-05-23T23:31:15.749Z,8.38
2023-05-23T23:33:42.592Z,8.23
2023-05-23T23:36:09.736Z,8.10
2023-05-23T23:38:38.023Z,8.27
2023-05-23T23:41:04.782Z,8.52
2023-05-23T23:43:32.662Z,8.35
2023-05-23T23:45:59.653Z,8.23
2023-05-23T23:48:26.411Z,8.15
2023-05-23T23:50:53.177Z,7.93
2023-05-23T23:53:21.433Z,7.50
2023-05-23T23:55:49.067Z,8.38
2023-05-23T23:58:16.283Z,7.70
